createdAt,value
2019-02-16T00:00:51.650Z,77.92
2019-02-16T00:04:00.193Z,77.13
2019-02-16T00:07:07.072Z,77.30
2019-02-16T00:10:13.927Z,77.33
2019-02-16T00:13:20.925Z,76.69
2019-02-16T00:16:28.903Z,77.20
2019-02-16T00:19:39.867Z,77.32
2019-02-16T00:22:46.847Z,77.07
2019-02-16T00:25:53.764Z,77.10
2019-02-16T00:29:00.690Z,77.41
2019-02-16T00:32:07.609Z,77.38
2019-02-16T00:35:14.792Z,77.81
2019-02-16T00:38:21.787Z,77.48
2019-02-16T00:41:28.662Z,77.13
2019-02-16T00:44:35.513Z,77.62
2019-02-16T00:47:42.381Z,77.77
2019-02-16T00:50:49.207Z,77.45
2019-02-16T00:53:55.979Z,77.21
2019-02-16T00:57:02.802Z,77.25
2019-02-16T01:00:11.116Z,77.43
2019-02-16T01:03:17.985Z,77.39
2019-02-16T01:06:24.891Z,77.23
2019-02-16T01:09:31.936Z,77.79
2019-02-16T01:12:38.801Z,77.70
2019-02-16T01:15:45.722Z,77.74
2019-02-16T01:18:52.694Z,77.76
2019-02-16T01:21:59.600Z,77.90
2019-02-16T01:25:07.006Z,77.88
2019-02-16T01:28:15.530Z,78.17
2019-02-16T01:31:22.444Z,77.97
2019-02-16T01:34:29.329Z,78.01
2019-02-16T01:37:36.578Z,77.62
2019-02-16T01:40:43.612Z,77.85
2019-02-16T01:43:50.738Z,78.25
2019-02-16T01:46:57.570Z,77.86
2019-02-16T01:50:04.821Z,78.13
2019-02-16T01:53:11.922Z,78.13
2019-02-16T01:56:18.822Z,77.45
2019-02-16T01:59:25.637Z,77.69
2019-02-16T02:02:32.511Z,77.62
2019-02-16T02:05:39.431Z,77.38
2019-02-16T02:08:46.342Z,77.13
2019-02-16T02:11:53.439Z,77.22
2019-02-16T02:15:00.388Z,77.17
2019-02-16T02:18:07.461Z,76.58
2019-02-16T02:21:14.331Z,77.26
2019-02-16T02:24:21.188Z,77.14
2019-02-16T02:27:27.954Z,76.81
2019-02-16T02:30:34.795Z,76.90
2019-02-16T02:33:41.860Z,76.72
2019-02-16T02:36:48.710Z,76.40
2019-02-16T02:39:56.667Z,75.65
2019-02-16T02:43:03.656Z,76.14
2019-02-16T02:46:10.519Z,75.81
2019-02-16T02:49:17.406Z,75.79
2019-02-16T02:52:25.917Z,75.65
2019-02-16T02:55:32.939Z,76.55
2019-02-16T02:58:41.795Z,76.73
2019-02-16T03:01:48.423Z,76.98
2019-02-16T03:04:55.204Z,76.41
2019-02-16T03:08:04.019Z,76.20
2019-02-16T03:11:10.978Z,75.77
2019-02-16T03:14:18.050Z,76.12
2019-02-16T03:17:24.837Z,76.01
2019-02-16T03:20:31.763Z,76.32
2019-02-16T03:23:38.673Z,76.28
2019-02-16T03:27:08.289Z,76.42
2019-02-16T03:31:19.810Z,76.24
2019-02-16T03:34:53.230Z,76.32
2019-02-16T03:38:43.424Z,77.07
2019-02-16T03:41:50.766Z,76.65
2019-02-16T03:44:57.727Z,76.69
2019-02-16T03:48:04.572Z,76.60
2019-02-16T03:51:14.166Z,76.92
2019-02-16T03:54:22.857Z,77.18
2019-02-16T03:57:29.750Z,77.07
2019-02-16T04:00:36.700Z,77.24
2019-02-16T04:03:43.693Z,77.37
2019-02-16T04:06:50.568Z,77.66
2019-02-16T04:09:57.476Z,77.63
2019-02-16T04:13:04.396Z,77.94
2019-02-16T04:16:11.285Z,77.69
2019-02-16T04:19:18.289Z,78.02
2019-02-16T04:22:25.212Z,77.85
2019-02-16T04:25:32.230Z,77.90
2019-02-16T04:28:39.212Z,77.94
2019-02-16T04:31:46.062Z,78.57
2019-02-16T04:34:55.924Z,78.64
2019-02-16T04:38:02.849Z,78.65
2019-02-16T04:41:09.710Z,78.83
2019-02-16T04:44:17.444Z,79.25
2019-02-16T04:47:26.867Z,79.10
2019-02-16T04:50:33.753Z,79.54
2019-02-16T04:53:40.595Z,78.81
2019-02-16T04:56:47.639Z,78.30
2019-02-16T04:59:54.872Z,78.84
2019-02-16T05:03:02.261Z,78.80
2019-02-16T05:06:09.047Z,78.63
2019-02-16T05:09:15.947Z,79.32
2019-02-16T05:12:22.796Z,79.34
2019-02-16T05:15:31.711Z,80.02
2019-02-16T05:18:38.350Z,79.95
2019-02-16T05:21:45.176Z,78.55
2019-02-16T05:24:53.251Z,77.94
2019-02-16T05:28:00.134Z,77.95
2019-02-16T05:31:07.011Z,77.66
2019-02-16T05:34:13.811Z,77.61
2019-02-16T05:37:22.814Z,77.10
2019-02-16T05:40:29.401Z,77.99
2019-02-16T05:43:36.266Z,79.07
2019-02-16T05:46:43.629Z,78.57
2019-02-16T05:49:50.527Z,78.07
2019-02-16T05:52:57.474Z,78.20
2019-02-16T05:56:04.343Z,79.18
2019-02-16T05:59:11.413Z,79.14
2019-02-16T06:02:18.965Z,79.68
2019-02-16T06:05:25.973Z,79.29
2019-02-16T06:08:32.774Z,79.76
2019-02-16T06:11:39.661Z,80.02
2019-02-16T06:14:47.379Z,80.53
2019-02-16T06:17:54.273Z,80.47
2019-02-16T06:21:01.975Z,80.44
2019-02-16T06:24:09.027Z,80.76
2019-02-16T06:27:18.499Z,82.25
2019-02-16T06:30:25.438Z,81.20
2019-02-16T06:33:32.228Z,80.95
2019-02-16T06:36:42.981Z,80.90
2019-02-16T06:39:51.125Z,81.23
2019-02-16T06:42:58.191Z,80.80
2019-02-16T06:46:05.048Z,80.86
2019-02-16T06:49:12.337Z,78.59
2019-02-16T06:52:19.135Z,78.75
2019-02-16T06:55:31.205Z,78.68
2019-02-16T06:58:38.133Z,76.08
2019-02-16T07:01:45.227Z,75.56
2019-02-16T07:04:52.186Z,73.93
2019-02-16T07:07:59.019Z,73.83
2019-02-16T07:11:05.972Z,72.88
2019-02-16T07:14:12.795Z,71.99
2019-02-16T07:17:41.399Z,72.45
2019-02-16T07:20:48.299Z,72.60
2019-02-16T07:23:55.255Z,70.63
2019-02-16T07:27:02.230Z,72.17
2019-02-16T07:30:11.032Z,72.59
2019-02-16T07:33:17.857Z,70.13
2019-02-16T07:36:24.863Z,68.72
2019-02-16T07:39:31.880Z,69.12
2019-02-16T07:43:09.618Z,68.24
2019-02-16T07:46:32.406Z,68.61
2019-02-16T07:49:54.041Z,67.27
2019-02-16T07:53:18.430Z,66.37
2019-02-16T07:56:50.783Z,65.55
2019-02-16T08:00:10.546Z,65.14
2019-02-16T08:03:36.241Z,65.33
2019-02-16T08:06:52.354Z,64.30
2019-02-16T08:10:23.897Z,63.10
2019-02-16T08:13:45.413Z,62.07
2019-02-16T08:17:03.904Z,61.42
2019-02-16T08:20:33.166Z,61.39
2019-02-16T08:24:10.877Z,61.02
2019-02-16T08:27:31.819Z,59.88
2019-02-16T08:30:56.583Z,58.97
2019-02-16T08:34:10.534Z,59.30
2019-02-16T08:37:36.612Z,57.61
2019-02-16T08:41:17.702Z,57.53
2019-02-16T08:44:34.716Z,55.28
2019-02-16T08:48:06.336Z,55.19
2019-02-16T08:51:26.816Z,54.39
2019-02-16T08:55:08.096Z,54.23
2019-02-16T08:58:33.783Z,53.78
2019-02-16T09:02:05.317Z,53.37
2019-02-16T09:05:34.276Z,53.84
2019-02-16T09:08:58.709Z,52.67
2019-02-16T09:12:21.326Z,53.31
2019-02-16T09:15:37.805Z,52.75
2019-02-16T09:19:03.615Z,52.05
2019-02-16T09:22:38.447Z,51.37
2019-02-16T09:26:19.341Z,51.73
2019-02-16T09:29:44.727Z,50.25
2019-02-16T09:33:09.360Z,49.93
2019-02-16T09:36:48.346Z,48.70
2019-02-16T09:40:13.112Z,48.93
2019-02-16T09:43:37.787Z,49.74
2019-02-16T09:47:22.271Z,49.44
2019-02-16T09:50:41.656Z,47.99
2019-02-16T09:54:08.872Z,47.20
2019-02-16T09:57:34.708Z,48.24
2019-02-16T10:01:09.602Z,49.00
2019-02-16T10:04:41.318Z,46.97
2019-02-16T10:08:16.243Z,45.99
2019-02-16T10:11:38.010Z,44.43
2019-02-16T10:14:54.867Z,42.84
2019-02-16T10:18:21.292Z,42.63
2019-02-16T10:21:45.805Z,43.49
2019-02-16T10:25:15.851Z,40.83
2019-02-16T10:28:47.537Z,42.32
2019-02-16T10:32:22.536Z,38.63
2019-02-16T10:36:03.352Z,39.73
2019-02-16T10:39:44.271Z,38.71
2019-02-16T10:43:18.016Z,37.21
2019-02-16T10:46:46.973Z,37.90
2019-02-16T10:50:15.511Z,33.69
2019-02-16T10:53:34.516Z,37.14
2019-02-16T10:57:03.786Z,34.05
2019-02-16T11:00:32.643Z,34.63
2019-02-16T11:03:50.843Z,34.06
2019-02-16T11:07:17.306Z,32.42
2019-02-16T11:10:41.066Z,31.02
2019-02-16T11:14:13.080Z,33.15
2019-02-16T11:17:40.378Z,31.62
2019-02-16T11:21:06.137Z,30.92
2019-02-16T11:24:36.064Z,27.33
2019-02-16T11:27:58.407Z,29.59
2019-02-16T11:31:13.145Z,29.83
2019-02-16T11:34:30.085Z,28.96
2019-02-16T11:37:55.840Z,27.95
2019-02-16T11:41:16.853Z,27.91
2019-02-16T11:44:39.897Z,27.67
2019-02-16T11:48:09.588Z,25.86
2019-02-16T11:51:35.300Z,27.99
2019-02-16T11:55:04.562Z,26.68
2019-02-16T11:58:29.629Z,26.39
2019-02-16T12:01:45.952Z,28.09
2019-02-16T12:05:18.553Z,27.17
2019-02-16T12:08:36.125Z,26.36
2019-02-16T12:12:04.440Z,28.25
2019-02-16T12:15:46.733Z,26.19
2019-02-16T12:19:13.516Z,26.17
2019-02-16T12:22:37.137Z,26.23
2019-02-16T12:26:02.508Z,29.34
2019-02-16T12:29:31.736Z,29.01
2019-02-16T12:32:47.955Z,27.42
2019-02-16T12:36:13.306Z,27.93
2019-02-16T12:39:27.369Z,27.35
2019-02-16T12:42:52.872Z,28.23
2019-02-16T12:46:19.954Z,28.93
2019-02-16T12:49:53.153Z,27.76
2019-02-16T12:53:13.985Z,29.49
2019-02-16T12:56:30.453Z,26.53
2019-02-16T12:59:51.610Z,27.78
2019-02-16T13:03:36.785Z,29.68
2019-02-16T13:07:04.194Z,28.11
2019-02-16T13:10:40.202Z,28.96
2019-02-16T13:14:08.379Z,27.82
2019-02-16T13:17:39.207Z,27.01
2019-02-16T13:21:11.966Z,27.91
2019-02-16T13:24:36.911Z,27.03
2019-02-16T13:28:04.089Z,27.64
2019-02-16T13:31:39.355Z,28.38
2019-02-16T13:35:07.414Z,27.89
2019-02-16T13:38:42.432Z,28.01
2019-02-16T13:42:00.828Z,26.51
2019-02-16T13:45:26.903Z,27.88
2019-02-16T13:48:53.414Z,26.00
2019-02-16T13:52:13.881Z,26.74
2019-02-16T13:55:40.207Z,27.00
2019-02-16T13:59:18.923Z,26.60
2019-02-16T14:02:49.100Z,27.72
2019-02-16T14:06:21.637Z,26.80
2019-02-16T14:09:50.609Z,27.09
2019-02-16T14:13:19.623Z,27.36
2019-02-16T14:16:47.731Z,26.66
2019-02-16T14:19:55.104Z,26.95
2019-02-16T14:23:03.123Z,25.34
2019-02-16T14:26:11.708Z,25.36
2019-02-16T14:29:18.958Z,26.81
2019-02-16T14:32:28.178Z,29.06
2019-02-16T14:35:36.599Z,27.55
2019-02-16T14:38:53.140Z,27.69
2019-02-16T14:42:00.830Z,27.88
2019-02-16T14:45:10.519Z,29.08
2019-02-16T14:48:17.948Z,28.59
2019-02-16T14:51:28.771Z,28.97
2019-02-16T14:54:36.228Z,29.83
2019-02-16T14:57:43.743Z,30.00
2019-02-16T15:00:51.179Z,30.44
2019-02-16T15:03:58.607Z,30.28
2019-02-16T15:07:05.549Z,31.16
2019-02-16T15:10:12.979Z,30.30
2019-02-16T15:13:22.694Z,29.92
2019-02-16T15:16:31.761Z,30.08
2019-02-16T15:19:39.043Z,30.36
2019-02-16T15:22:46.649Z,31.43
2019-02-16T15:26:00.869Z,30.60
2019-02-16T15:29:03.287Z,30.18
2019-02-16T15:32:10.936Z,30.63
2019-02-16T15:35:20.401Z,30.35
2019-02-16T15:38:29.441Z,31.34
2019-02-16T15:41:39.236Z,31.88
2019-02-16T15:44:47.698Z,31.73
2019-02-16T15:47:56.243Z,31.60
2019-02-16T15:51:03.671Z,32.20
2019-02-16T15:54:11.129Z,31.57
2019-02-16T15:57:19.032Z,32.78
2019-02-16T16:00:28.094Z,32.83
2019-02-16T16:03:35.427Z,33.63
2019-02-16T16:06:43.323Z,33.39
2019-02-16T16:10:08.549Z,37.33
2019-02-16T16:13:34.808Z,40.69
2019-02-16T16:16:56.577Z,36.99
2019-02-16T16:20:27.149Z,41.47
2019-02-16T16:24:11.469Z,38.48
2019-02-16T16:27:29.019Z,34.44
2019-02-16T16:30:44.645Z,36.04
2019-02-16T16:34:16.688Z,35.54
2019-02-16T16:37:32.887Z,34.50
2019-02-16T16:40:57.799Z,34.48
2019-02-16T16:44:29.472Z,33.20
2019-02-16T16:47:57.443Z,35.39
2019-02-16T16:51:23.152Z,35.27
2019-02-16T16:54:44.678Z,42.84
2019-02-16T16:58:08.547Z,45.64
2019-02-16T17:01:37.605Z,44.91
2019-02-16T17:05:02.675Z,43.87
2019-02-16T17:08:42.806Z,42.71
2019-02-16T17:12:12.289Z,44.20
2019-02-16T17:15:38.726Z,49.73
2019-02-16T17:19:04.891Z,50.04
2019-02-16T17:22:31.093Z,50.58
2019-02-16T17:26:03.397Z,53.29
2019-02-16T17:29:32.689Z,51.80
2019-02-16T17:32:49.572Z,52.12
2019-02-16T17:36:06.093Z,52.01
2019-02-16T17:39:29.340Z,52.39
2019-02-16T17:43:04.701Z,53.55
2019-02-16T17:46:29.639Z,53.64
2019-02-16T17:49:54.634Z,57.12
2019-02-16T17:53:10.942Z,54.65
2019-02-16T17:56:46.430Z,55.35
2019-02-16T17:59:56.581Z,52.89
2019-02-16T18:03:19.919Z,55.45
2019-02-16T18:06:53.221Z,57.89
2019-02-16T18:10:23.034Z,58.67
2019-02-16T18:13:37.934Z,60.47
2019-02-16T18:17:22.265Z,62.11
2019-02-16T18:21:02.415Z,58.52
2019-02-16T18:24:35.714Z,57.07
2019-02-16T18:28:02.714Z,57.22
2019-02-16T18:31:28.215Z,55.26
2019-02-16T18:34:50.302Z,54.58
2019-02-16T18:38:05.605Z,53.59
2019-02-16T18:41:53.867Z,57.97
2019-02-16T18:45:12.339Z,57.00
2019-02-16T18:48:38.997Z,56.89
2019-02-16T18:51:53.599Z,54.88
2019-02-16T18:55:29.113Z,56.17
2019-02-16T18:58:51.114Z,56.08
2019-02-16T19:02:19.536Z,60.45
2019-02-16T19:05:48.706Z,58.66
2019-02-16T19:09:18.120Z,61.12
2019-02-16T19:12:43.808Z,57.97
2019-02-16T19:16:16.296Z,59.02
2019-02-16T19:19:40.789Z,62.51
2019-02-16T19:23:07.358Z,60.61
2019-02-16T19:26:36.839Z,62.87
2019-02-16T19:30:06.162Z,63.83
2019-02-16T19:33:42.495Z,65.96
2019-02-16T19:37:08.622Z,60.64
2019-02-16T19:40:28.406Z,58.27
2019-02-16T19:43:57.537Z,59.53
2019-02-16T19:47:29.794Z,59.43
2019-02-16T19:50:56.150Z,59.60
2019-02-16T19:54:14.009Z,57.72
2019-02-16T19:57:39.150Z,59.77
2019-02-16T20:01:17.720Z,60.77
2019-02-16T20:04:33.972Z,55.85
2019-02-16T20:08:03.084Z,60.35
2019-02-16T20:11:29.247Z,58.78
2019-02-16T20:15:02.094Z,57.03
2019-02-16T20:18:18.606Z,54.71
2019-02-16T20:21:43.931Z,56.05
2019-02-16T20:25:13.160Z,56.44
2019-02-16T20:28:45.230Z,53.01
2019-02-16T20:32:04.497Z,53.65
2019-02-16T20:35:29.762Z,53.57
2019-02-16T20:38:43.529Z,53.21
2019-02-16T20:42:01.750Z,53.04
2019-02-16T20:45:28.722Z,53.49
2019-02-16T20:48:49.116Z,52.91
2019-02-16T20:52:14.371Z,53.95
2019-02-16T20:55:32.587Z,54.94
2019-02-16T20:59:14.880Z,53.07
2019-02-16T21:02:29.869Z,54.92
2019-02-16T21:05:56.950Z,56.76
2019-02-16T21:09:21.157Z,55.60
2019-02-16T21:12:49.044Z,55.43
2019-02-16T21:16:19.213Z,54.16
2019-02-16T21:19:40.470Z,54.25
2019-02-16T21:23:05.595Z,56.13
2019-02-16T21:26:41.193Z,55.23
2019-02-16T21:30:06.383Z,55.51
2019-02-16T21:33:36.448Z,54.66
2019-02-16T21:37:04.579Z,55.33
2019-02-16T21:40:27.434Z,54.77
2019-02-16T21:44:00.895Z,54.76
2019-02-16T21:47:30.372Z,55.38
2019-02-16T21:51:03.010Z,55.92
2019-02-16T21:54:16.442Z,55.69
2019-02-16T21:57:41.835Z,55.78
2019-02-16T22:01:11.175Z,55.39
2019-02-16T22:04:26.990Z,55.91
2019-02-16T22:07:54.111Z,56.81
2019-02-16T22:11:27.708Z,56.21
2019-02-16T22:14:35.011Z,56.79
2019-02-16T22:17:42.846Z,55.21
2019-02-16T22:20:50.277Z,55.42
2019-02-16T22:23:57.982Z,56.66
2019-02-16T22:27:06.370Z,56.72
2019-02-16T22:30:14.419Z,59.05
2019-02-16T22:33:22.129Z,57.88
2019-02-16T22:36:30.236Z,56.84
2019-02-16T22:39:38.777Z,56.49
2019-02-16T22:42:47.299Z,59.35
2019-02-16T22:45:55.122Z,58.54
2019-02-16T22:49:03.517Z,57.41
2019-02-16T22:52:12.199Z,59.14
2019-02-16T22:55:19.647Z,60.86
2019-02-16T22:58:29.206Z,58.78
2019-02-16T23:01:36.322Z,59.55
2019-02-16T23:04:44.566Z,60.47
2019-02-16T23:07:54.756Z,61.27
2019-02-16T23:11:03.232Z,60.33
2019-02-16T23:14:11.771Z,61.32
2019-02-16T23:17:19.158Z,61.55
2019-02-16T23:20:29.439Z,59.47
2019-02-16T23:23:38.157Z,62.59
2019-02-16T23:26:47.567Z,62.62
2019-02-16T23:29:55.965Z,63.69
2019-02-16T23:33:03.700Z,63.41
2019-02-16T23:36:11.459Z,63.94
2019-02-16T23:39:18.976Z,65.92
2019-02-16T23:42:27.014Z,68.26
2019-02-16T23:45:34.624Z,64.71
2019-02-16T23:48:42.173Z,66.16
2019-02-16T23:51:49.641Z,66.81
2019-02-16T23:54:58.164Z,69.42
2019-02-16T23:58:07.474Z,70.47
